Time;durP1;ratioP1;P1;durP2;ratioP2;P2;SDS_P1;SDS_P2;PMS_P1;PMS_P2;Temp;Humidity;BMP_temperature;BMP_pressure;BME280_temperature;BME280_humidity;BME280_pressure;Samples;Min_cycle;Max_cycle;Signal;HPM_P1;HPM_P2
2022/08/07 00:03:04;;;;;;;0.38;0.20;;;;;;;19.31;39.35;100950.13;10459877;28;20105;-70
2022/08/07 00:08:08;;;;;;;0.40;0.10;;;;;;;19.37;39.17;100943.22;10477232;28;20135;-69
2022/08/07 00:13:15;;;;;;;1.08;0.32;;;;;;;19.30;39.10;100934.09;10481713;28;20806;-71
2022/08/07 00:18:27;;;;;;;0.60;0.10;;;;;;;19.19;39.12;100933.38;10474917;28;20510;-70
2022/08/07 00:23:31;;;;;;;1.83;0.20;;;;;;;19.13;38.97;100931.34;10459208;28;20059;-70
2022/08/07 00:28:33;;;;;;;0.68;0.20;;;;;;;19.12;39.24;100921.53;10477913;28;20317;-71
2022/08/07 00:33:46;;;;;;;0.40;0.10;;;;;;;18.96;39.57;100914.25;10475177;28;20442;-70
2022/08/07 00:38:48;;;;;;;1.13;0.10;;;;;;;19.00;39.93;100923.69;10469465;28;20062;-70
2022/08/07 00:43:50;;;;;;;1.23;0.20;;;;;;;18.95;40.12;100922.50;10472986;28;20059;-71
2022/08/07 00:49:03;;;;;;;0.30;0.10;;;;;;;18.97;39.87;100915.94;10472506;28;20467;-71
2022/08/07 00:54:04;;;;;;;0.40;0.10;;;;;;;18.95;39.99;100917.13;10474170;28;20736;-71
2022/08/07 00:59:06;;;;;;;0.40;0.20;;;;;;;18.92;40.37;100918.28;10460429;28;20040;-71
2022/08/07 01:04:08;;;;;;;0.43;0.10;;;;;;;18.96;40.47;100914.25;10471101;28;20059;-72
2022/08/07 01:09:11;;;;;;;1.58;0.17;;;;;;;19.00;39.61;100917.47;10472690;28;20048;-71
2022/08/07 01:14:32;;;;;;;0.20;0.10;;;;;;;19.01;39.78;100909.19;10466780;28;20105;-70
2022/08/07 01:19:38;;;;;;;0.22;0.22;;;;;;;18.95;39.51;100912.56;10471992;28;20048;-70
2022/08/07 01:24:46;;;;;;;0.82;0.10;;;;;;;18.73;39.59;100912.09;10469598;28;20056;-70
2022/08/07 01:29:48;;;;;;;0.77;0.30;;;;;;;18.73;40.10;100906.72;10458174;28;20048;-70
2022/08/07 01:34:51;;;;;;;1.23;0.10;;;;;;;18.75;40.27;100900.28;10467714;28;20048;-70
2022/08/07 01:39:53;;;;;;;1.55;0.10;;;;;;;18.43;41.14;100896.41;10469151;28;20072;-70
2022/08/07 01:44:58;;;;;;;1.95;0.20;;;;;;;18.50;40.10;100908.25;10466628;28;20626;-70
2022/08/07 01:50:00;;;;;;;0.10;0.10;;;;;;;18.49;40.87;100911.94;10473497;28;20055;-70
2022/08/07 01:55:03;;;;;;;1.05;0.10;;;;;;;18.42;40.79;100905.50;10472864;28;20372;-70
2022/08/07 02:00:07;;;;;;;1.37;0.17;;;;;;;18.42;40.83;100908.19;10460307;28;20055;-71
2022/08/07 02:05:19;;;;;;;1.65;0.20;;;;;;;18.37;40.99;100908.66;10461459;28;20040;-69
2022/08/07 02:10:41;;;;;;;0.68;0.10;;;;;;;18.17;41.01;100902.66;10469622;28;20044;-69
2022/08/07 02:15:43;;;;;;;1.25;0.20;;;;;;;18.06;40.91;100900.19;10460318;28;20060;-70
2022/08/07 02:20:49;;;;;;;2.78;0.30;;;;;;;17.98;41.74;100898.28;10473672;28;20040;-70
2022/08/07 02:25:57;;;;;;;1.02;0.30;;;;;;;18.08;41.54;100893.66;10473780;28;20058;-70
2022/08/07 02:31:21;;;;;;;0.45;0.20;;;;;;;18.00;41.54;100902.53;10463889;28;20056;-71
2022/08/07 02:36:31;;;;;;;1.92;0.17;;;;;;;17.94;41.65;100889.69;10465654;28;20048;-71
2022/08/07 02:41:34;;;;;;;0.47;0.15;;;;;;;17.62;41.89;100899.13;10458629;28;20055;-71
2022/08/07 02:46:38;;;;;;;;;;;;;;;17.51;42.70;100885.06;10473445;28;20131;-70
2022/08/07 02:51:48;;;;;;;0.50;0.10;;;;;;;17.47;42.81;100884.50;10452469;28;20015;-71
2022/08/07 02:56:54;;;;;;;1.23;0.10;;;;;;;17.40;42.77;100886.13;10465392;28;20583;-71
2022/08/07 03:01:56;;;;;;;1.45;0.10;;;;;;;17.43;43.23;100875.91;10452072;28;20117;-70
2022/08/07 03:07:03;;;;;;;0.60;0.20;;;;;;;17.41;42.85;100874.38;10465754;28;20130;-70
2022/08/07 03:12:11;;;;;;;1.75;0.20;;;;;;;17.33;42.84;100866.22;10465422;28;20056;-70
2022/08/07 03:17:24;;;;;;;0.68;0.20;;;;;;;17.25;43.58;100873.22;10448922;28;20060;-70
2022/08/07 03:22:27;;;;;;;1.25;0.20;;;;;;;17.42;43.28;100876.06;10457507;28;20055;-70
2022/08/07 03:27:31;;;;;;;0.70;0.32;;;;;;;17.55;43.40;100871.16;10466708;28;20048;-70
2022/08/07 03:32:53;;;;;;;1.58;0.10;;;;;;;17.45;43.27;100871.22;10472173;28;20055;-69
2022/08/07 03:38:03;;;;;;;0.50;0.32;;;;;;;17.49;42.62;100866.38;10479696;28;20107;-69
2022/08/07 03:43:05;;;;;;;;;;;;;;;17.48;43.15;100865.53;10471913;28;20052;-70
2022/08/07 03:48:15;;;;;;;1.67;0.10;;;;;;;17.14;43.44;100862.66;10479636;28;20249;-70
2022/08/07 03:53:16;;;;;;;1.48;0.20;;;;;;;17.22;43.81;100865.44;10473937;28;20135;-69
2022/08/07 03:58:20;;;;;;;0.82;0.10;;;;;;;17.36;43.50;100863.22;10462821;28;20060;-70
2022/08/07 04:03:43;;;;;;;0.70;0.70;;;;;;;17.32;43.11;100859.97;10475861;28;20737;-70
2022/08/07 04:08:54;;;;;;;1.05;0.10;;;;;;;17.31;43.59;100875.28;10480257;28;20040;-70
2022/08/07 04:13:58;;;;;;;0.47;0.20;;;;;;;17.30;43.63;100872.75;10462878;28;20058;-73
2022/08/07 04:19:20;;;;;;;0.27;0.07;;;;;;;17.24;43.51;100868.81;10473217;28;20048;-71
2022/08/07 04:24:41;;;;;;;2.47;0.20;;;;;;;17.20;44.00;100878.19;10474149;28;20336;-71
2022/08/07 04:29:44;;;;;;;0.93;0.20;;;;;;;17.05;44.20;100880.53;10472488;28;20056;-71
2022/08/07 04:35:00;;;;;;;0.70;0.17;;;;;;;17.13;44.20;100890.56;10471820;28;20415;-71
2022/08/07 04:40:04;;;;;;;0.85;0.20;;;;;;;16.95;44.57;100891.38;10471501;28;20547;-71
2022/08/07 04:45:07;;;;;;;0.30;0.20;;;;;;;17.03;44.76;100887.09;10473567;28;21098;-71
2022/08/07 04:50:13;;;;;;;1.40;0.10;;;;;;;17.08;44.11;100893.72;10469656;28;20131;-70
2022/08/07 04:55:35;;;;;;;0.30;0.20;;;;;;;16.92;44.69;100893.50;10469846;28;20978;-70
2022/08/07 05:01:27;;;;;;;1.80;0.50;;;;;;;17.06;44.41;100895.69;10469205;28;20055;-71
2022/08/07 05:06:36;;;;;;;0.30;0.13;;;;;;;17.11;44.51;100900.63;10430657;28;20044;-71
2022/08/07 05:11:50;;;;;;;0.75;0.30;;;;;;;17.07;44.27;100909.97;10472947;28;20193;-70
2022/08/07 05:17:06;;;;;;;0.85;0.30;;;;;;;16.85;44.62;100906.66;10474769;28;20158;-71
2022/08/07 05:22:14;;;;;;;4.20;0.20;;;;;;;17.05;45.45;100920.88;10475482;28;20055;-70
2022/08/07 05:27:29;;;;;;;0.35;0.20;;;;;;;17.22;45.36;100913.88;10481220;28;20059;-71
2022/08/07 05:32:53;;;;;;;0.45;0.28;;;;;;;17.39;44.40;100922.13;10465100;28;20045;-72
2022/08/07 05:37:55;;;;;;;0.80;0.38;;;;;;;17.45;43.77;100926.91;10479716;28;20059;-71
2022/08/07 05:43:10;;;;;;;1.13;0.30;;;;;;;17.27;44.49;100930.38;10478752;28;20133;-72
2022/08/07 05:48:14;;;;;;;1.20;0.60;;;;;;;17.37;44.25;100926.78;10475518;28;20272;-71
2022/08/07 05:53:16;;;;;;;0.20;0.20;;;;;;;17.48;43.90;100929.28;10475103;28;20071;-71
2022/08/07 05:58:39;;;;;;;0.80;0.40;;;;;;;17.70;44.26;100938.75;10471616;28;20048;-71
2022/08/07 06:03:53;;;;;;;2.20;0.50;;;;;;;17.91;43.93;100946.56;10460496;28;20251;-74
2022/08/07 06:09:02;;;;;;;2.30;0.30;;;;;;;18.15;43.58;100947.75;10456410;28;20045;-72
2022/08/07 06:14:05;;;;;;;0.70;0.22;;;;;;;18.35;42.91;100951.13;10456923;28;20075;-71
2022/08/07 06:19:23;;;;;;;1.10;0.43;;;;;;;18.41;42.88;100946.94;10439234;28;20052;-70
2022/08/07 06:24:45;;;;;;;0.40;0.30;;;;;;;18.57;42.82;100951.59;10439227;28;20117;-69
2022/08/07 06:29:59;;;;;;;1.05;0.30;;;;;;;18.69;43.10;100953.88;10437859;28;20056;-74
2022/08/07 06:35:01;;;;;;;0.30;0.10;;;;;;;18.81;42.41;100948.19;10449447;28;20103;-72
2022/08/07 06:40:11;;;;;;;1.10;0.30;;;;;;;19.01;42.09;100938.03;10455417;28;20136;-73
2022/08/07 06:45:23;;;;;;;2.47;0.65;;;;;;;19.25;42.66;100940.81;10436246;28;20052;-73
2022/08/07 06:50:26;;;;;;;0.32;0.20;;;;;;;19.39;41.49;100936.63;10452588;28;20068;-72
2022/08/07 06:55:32;;;;;;;0.80;0.20;;;;;;;19.55;41.88;100929.59;10447347;28;20157;-71
2022/08/07 07:00:54;;;;;;;0.70;0.20;;;;;;;19.73;40.66;100933.00;10446133;28;20055;-71
2022/08/07 07:05:56;;;;;;;0.43;0.25;;;;;;;19.95;39.76;100934.25;10445300;28;20053;-72
2022/08/07 07:11:06;;;;;;;1.80;0.30;;;;;;;20.07;40.04;100928.47;10444740;28;20817;-71
2022/08/07 07:16:33;;;;;;;1.38;0.25;;;;;;;20.28;40.29;100936.06;10452926;28;20063;-71
2022/08/07 07:21:46;;;;;;;0.57;0.10;;;;;;;20.38;39.22;100925.91;10442099;28;20392;-71
2022/08/07 07:27:09;;;;;;;0.30;0.13;;;;;;;20.63;39.02;100925.88;10447431;28;20052;-71
2022/08/07 07:32:13;;;;;;;1.50;0.10;;;;;;;20.84;38.56;100931.59;10450188;28;20047;-72
2022/08/07 07:37:16;;;;;;;0.60;0.20;;;;;;;21.15;38.03;100930.78;10449860;28;20048;-72
2022/08/07 07:42:39;;;;;;;0.60;0.20;;;;;;;21.24;37.47;100922.63;10450272;28;20055;-72
2022/08/07 07:47:44;;;;;;;1.33;0.10;;;;;;;21.42;36.52;100916.94;10436583;28;20415;-72
2022/08/07 07:52:55;;;;;;;0.70;0.15;;;;;;;21.68;36.44;100911.22;10448002;28;20043;-73
2022/08/07 07:57:57;;;;;;;;;;;;;;;21.96;36.44;100908.75;10447609;28;20052;-71
2022/08/07 08:03:05;;;;;;;2.25;0.28;;;;;;;22.12;35.55;100907.78;10448960;28;19936;-72
2022/08/07 08:08:11;;;;;;;0.50;0.20;;;;;;;22.35;35.81;100901.50;10438606;28;20044;-72
2022/08/07 08:13:34;;;;;;;0.98;0.20;;;;;;;22.53;34.98;100893.84;10431842;28;20056;-74
2022/08/07 08:18:56;;;;;;;0.97;0.10;;;;;;;22.80;34.92;100904.22;10444672;28;20075;-74
2022/08/07 08:29:49;;;;;;;0.60;0.10;;;;;;;22.86;35.22;100885.28;10458058;28;20056;-74
2022/08/07 08:34:57;;;;;;;1.35;0.13;;;;;;;23.31;33.88;100885.25;10455118;28;20756;-74
2022/08/07 08:40:00;;;;;;;0.60;0.10;;;;;;;23.33;33.54;100871.47;10448537;28;20052;-74
2022/08/07 08:45:08;;;;;;;;;;;;;;;23.58;33.56;100880.09;10457751;28;20431;-73
2022/08/07 08:50:21;;;;;;;1.38;0.20;;;;;;;23.91;33.63;100877.69;10457121;28;20410;-71
2022/08/07 08:55:51;;;;;;;0.65;0.13;;;;;;;24.05;33.03;100873.22;10448612;28;20048;-76
2022/08/07 09:01:10;;;;;;;0.38;0.10;;;;;;;23.91;33.35;100866.81;10447403;28;20504;-74
2022/08/07 09:06:37;;;;;;;0.30;0.03;;;;;;;24.49;33.26;100866.59;10462256;28;20094;-73
2022/08/07 09:11:57;;;;;;;0.50;0.30;;;;;;;24.89;32.19;100871.41;10453527;28;20044;-73
2022/08/07 09:17:36;;;;;;;0.65;0.10;;;;;;;25.16;31.87;100861.47;10455577;28;20063;-73
2022/08/07 09:23:08;;;;;;;1.42;0.10;;;;;;;25.34;32.18;100860.94;10445058;28;20052;-72
2022/08/07 09:28:38;;;;;;;1.15;0.22;;;;;;;25.70;32.38;100843.34;10469193;28;20048;-73
2022/08/07 09:34:21;;;;;;;1.20;0.22;;;;;;;25.84;31.24;100833.28;10465554;28;20052;-72
2022/08/07 09:39:26;;;;;;;1.35;0.15;;;;;;;25.70;31.46;100823.41;10459509;28;20630;-72
2022/08/07 09:44:57;;;;;;;0.47;0.10;;;;;;;26.37;30.09;100826.09;10446639;28;20507;-73
2022/08/07 09:50:35;;;;;;;1.42;0.20;;;;;;;25.95;31.65;100815.44;10467550;28;20051;-72
2022/08/07 09:56:18;;;;;;;0.47;0.10;;;;;;;26.82;30.47;100809.78;10473091;28;20060;-74
2022/08/07 10:01:59;;;;;;;1.00;0.30;;;;;;;27.04;29.40;100798.50;10458216;28;20048;-76
2022/08/07 10:07:30;;;;;;;1.65;0.20;;;;;;;27.27;29.46;100787.03;10444606;28;20120;-75
2022/08/07 10:13:04;;;;;;;0.63;0.20;;;;;;;27.03;28.67;100786.75;10440497;28;21329;-77
2022/08/07 10:18:46;;;;;;;0.70;0.20;;;;;;;26.61;28.74;100786.31;10459818;28;20052;-75
2022/08/07 10:24:09;;;;;;;1.70;0.20;;;;;;;26.78;28.11;100782.09;10457767;28;20884;-74
2022/08/07 10:29:38;;;;;;;1.27;0.15;;;;;;;27.67;26.66;100778.53;10472294;28;20044;-75
2022/08/07 10:35:31;;;;;;;0.30;0.10;;;;;;;28.83;24.95;100765.03;10472831;28;20047;-72
2022/08/07 10:41:18;;;;;;;0.57;0.10;;;;;;;29.84;23.29;100758.00;10361938;28;20055;-71
2022/08/07 10:46:54;;;;;;;1.50;0.20;;;;;;;30.45;22.69;100747.53;10500620;28;20050;-72
2022/08/07 10:52:02;;;;;;;0.88;0.20;;;;;;;31.07;22.47;100744.03;10476972;28;20128;-71
2022/08/07 10:57:37;;;;;;;2.28;0.32;;;;;;;31.34;23.36;100729.63;10454468;28;20106;-73
2022/08/07 11:02:49;;;;;;;1.27;0.47;;;;;;;31.26;22.87;100730.88;10406894;28;20055;-72
2022/08/07 11:08:17;;;;;;;0.60;0.00;;;;;;;31.35;20.89;100734.06;10453537;28;20541;-72
2022/08/07 11:13:45;;;;;;;0.75;0.10;;;;;;;31.34;22.89;100716.69;10449021;28;20126;-73
2022/08/07 11:19:18;;;;;;;1.88;0.20;;;;;;;31.59;22.47;100722.88;10452592;28;20048;-73
2022/08/07 11:24:47;;;;;;;;;;;;;;;32.43;21.27;100714.38;10449493;28;20075;-73
2022/08/07 11:29:59;;;;;;;0.47;0.10;;;;;;;32.60;20.27;100711.53;10452021;28;20023;-73
2022/08/07 11:35:28;;;;;;;0.65;0.10;;;;;;;31.46;21.08;100702.03;10454917;28;20235;-73
2022/08/07 11:40:50;;;;;;;0.35;0.10;;;;;;;32.00;20.54;100694.00;10450343;28;20719;-73
2022/08/07 11:46:26;;;;;;;0.38;0.10;;;;;;;32.22;19.96;100687.69;10446871;28;20056;-73
2022/08/07 11:51:53;;;;;;;1.35;0.88;;;;;;;32.39;21.44;100677.41;10459585;28;20050;-74
2022/08/07 11:57:40;;;;;;;0.32;0.03;;;;;;;32.43;19.93;100680.50;10462422;28;20036;-75
2022/08/07 12:03:24;;;;;;;0.10;0.00;;;;;;;32.39;19.93;100671.91;10423057;28;20591;-75
2022/08/07 12:08:54;;;;;;;0.98;0.10;;;;;;;32.56;20.08;100676.47;10455546;28;20048;-73
2022/08/07 12:14:07;;;;;;;1.50;0.10;;;;;;;32.67;20.20;100672.78;10454111;28;20044;-73
2022/08/07 12:19:26;;;;;;;1.15;0.20;;;;;;;31.95;20.44;100649.91;10453738;28;20062;-73
2022/08/07 12:30:42;;;;;;;0.77;0.17;;;;;;;31.70;21.35;100653.16;10453999;28;20155;-73
2022/08/07 12:35:55;;;;;;;0.73;0.10;;;;;;;31.55;20.78;100651.03;10438464;28;20305;-75
2022/08/07 12:41:01;;;;;;;0.80;0.30;;;;;;;31.31;21.18;100642.13;10441598;28;20063;-72
2022/08/07 12:46:15;;;;;;;1.48;0.10;;;;;;;31.48;20.51;100633.84;10458302;28;20052;-74
2022/08/07 12:51:45;;;;;;;0.38;0.10;;;;;;;31.52;19.98;100632.25;10462900;28;20048;-72
2022/08/07 12:57:09;;;;;;;1.45;0.10;;;;;;;31.58;20.14;100628.50;10466527;28;20613;-73
2022/08/07 13:02:34;;;;;;;1.10;0.30;;;;;;;31.32;20.31;100627.31;10449638;28;20055;-76
2022/08/07 13:08:13;;;;;;;0.85;0.10;;;;;;;31.06;20.08;100615.91;10455466;28;20449;-75
2022/08/07 13:13:32;;;;;;;3.17;0.10;;;;;;;30.65;19.38;100604.25;10478811;28;20039;-74
2022/08/07 13:19:16;;;;;;;0.50;0.00;;;;;;;30.66;20.15;100612.22;10483195;28;20174;-73
2022/08/07 13:24:43;;;;;;;0.98;0.10;;;;;;;30.65;20.97;100598.75;10475564;28;20750;-75
2022/08/07 13:30:00;;;;;;;1.25;0.10;;;;;;;30.52;20.80;100605.38;10475333;28;20120;-72
2022/08/07 13:35:10;;;;;;;0.80;0.10;;;;;;;30.12;20.12;100600.78;10473319;28;21066;-71
2022/08/07 13:40:38;;;;;;;0.35;0.10;;;;;;;30.06;21.50;100596.28;10470039;28;20090;-74
2022/08/07 13:45:45;;;;;;;0.75;0.10;;;;;;;29.94;21.58;100579.88;10481904;28;20052;-72
2022/08/07 13:51:08;;;;;;;0.47;0.03;;;;;;;29.78;21.81;100585.00;10476784;28;20273;-73
2022/08/07 13:56:32;;;;;;;0.95;0.10;;;;;;;29.57;22.49;100580.19;10480793;28;20053;-72
2022/08/07 14:01:48;;;;;;;0.88;0.13;;;;;;;29.44;22.87;100575.81;10482490;28;20056;-73
2022/08/07 14:07:04;;;;;;;0.80;0.10;;;;;;;29.44;22.90;100567.59;10479712;28;20083;-73
2022/08/07 14:12:23;;;;;;;0.15;0.08;;;;;;;29.36;22.26;100576.16;10474238;28;20056;-74
2022/08/07 14:17:30;;;;;;;0.85;0.10;;;;;;;29.25;22.37;100564.16;10489692;28;20040;-73
2022/08/07 14:23:01;;;;;;;0.30;0.10;;;;;;;29.19;22.62;100571.38;10484919;28;20049;-73
2022/08/07 14:28:08;;;;;;;1.33;0.10;;;;;;;29.08;23.39;100564.03;10483137;28;20044;-73
2022/08/07 14:33:15;;;;;;;1.08;0.40;;;;;;;28.99;22.83;100565.44;10465084;28;20040;-72
2022/08/07 14:38:26;;;;;;;0.43;0.10;;;;;;;28.82;23.21;100554.34;10477131;28;20129;-73
2022/08/07 14:43:39;;;;;;;0.85;0.10;;;;;;;28.31;23.27;100548.41;10486868;28;20063;-74
2022/08/07 14:49:02;;;;;;;0.28;0.10;;;;;;;28.34;23.49;100545.19;10485887;28;20052;-73
2022/08/07 14:54:28;;;;;;;1.17;0.20;;;;;;;28.31;23.86;100537.47;10516999;28;20112;-73
2022/08/07 14:59:35;;;;;;;0.63;0.10;;;;;;;27.99;23.63;100545.94;10512331;28;20050;-73
2022/08/07 15:04:57;;;;;;;0.43;0.10;;;;;;;27.91;23.24;100536.13;10502735;28;20109;-74
2022/08/07 15:10:02;;;;;;;0.40;0.10;;;;;;;27.90;23.86;100537.19;10493905;28;20139;-73
2022/08/07 15:15:37;;;;;;;0.68;0.10;;;;;;;27.77;23.29;100537.34;10506731;28;20147;-74
2022/08/07 15:20:41;;;;;;;0.98;0.10;;;;;;;27.58;24.42;100525.59;10488210;28;20369;-73
2022/08/07 15:25:58;;;;;;;0.80;0.10;;;;;;;27.55;24.08;100526.91;10504098;28;20075;-75
2022/08/07 15:31:03;;;;;;;0.38;0.15;;;;;;;27.49;24.06;100523.19;10512930;28;20055;-73
2022/08/07 15:36:07;;;;;;;1.65;0.10;;;;;;;27.47;23.87;100517.13;10511463;28;20040;-72
2022/08/07 15:41:13;;;;;;;0.65;0.30;;;;;;;27.40;24.26;100508.19;10471286;28;20043;-73
2022/08/07 15:46:26;;;;;;;1.30;0.10;;;;;;;27.37;24.15;100511.38;10464958;28;20773;-73
2022/08/07 15:51:49;;;;;;;0.85;0.30;;;;;;;27.32;24.19;100505.69;10467426;28;20051;-76
2022/08/07 15:56:59;;;;;;;0.68;0.10;;;;;;;27.26;23.71;100501.16;10456481;28;20064;-72
2022/08/07 16:02:02;;;;;;;0.35;0.10;;;;;;;27.15;24.16;100492.66;10437191;28;20166;-74
2022/08/07 16:07:10;;;;;;;0.88;0.30;;;;;;;27.14;23.92;100495.63;10452059;28;20056;-72
2022/08/07 16:12:39;;;;;;;1.95;0.20;;;;;;;27.11;23.70;100490.59;10445710;28;20053;-73
2022/08/07 16:18:12;;;;;;;0.63;0.30;;;;;;;27.05;24.08;100486.88;10446085;28;20340;-71
2022/08/07 16:23:56;;;;;;;0.45;0.10;;;;;;;26.98;24.04;100492.44;10443564;28;20045;-74
2022/08/07 16:29:14;;;;;;;0.63;0.22;;;;;;;26.99;24.35;100494.09;10450777;28;20446;-75
2022/08/07 16:34:47;;;;;;;0.17;0.10;;;;;;;26.98;24.47;100486.13;10451074;28;20081;-75
2022/08/07 16:40:17;;;;;;;3.13;0.50;;;;;;;26.93;24.15;100488.69;10453190;28;20211;-75
2022/08/07 16:45:47;;;;;;;1.50;0.20;;;;;;;26.83;24.39;100488.38;10461363;28;20059;-73
2022/08/07 16:51:46;;;;;;;2.13;0.22;;;;;;;26.75;24.38;100484.03;10461663;28;20048;-72
2022/08/07 16:57:38;;;;;;;1.25;0.45;;;;;;;26.67;24.47;100482.44;10446249;28;20047;-69
2022/08/07 17:03:14;;;;;;;1.48;0.22;;;;;;;26.61;24.51;100483.31;10447148;28;20542;-72
2022/08/07 17:08:33;;;;;;;0.70;0.20;;;;;;;26.54;24.66;100479.81;10440255;28;20054;-74
2022/08/07 17:14:08;;;;;;;2.08;0.30;;;;;;;26.44;24.63;100480.31;10459293;28;20060;-73
2022/08/07 17:19:38;;;;;;;0.55;0.25;;;;;;;26.38;25.15;100479.31;10457171;28;20110;-72
2022/08/07 17:25:14;;;;;;;0.50;0.20;;;;;;;26.29;25.19;100467.84;10456885;28;20060;-73
2022/08/07 17:30:17;;;;;;;0.50;0.13;;;;;;;26.32;25.38;100477.47;10433614;28;20056;-72
2022/08/07 17:35:44;;;;;;;0.90;0.40;;;;;;;26.26;25.46;100483.81;10465708;28;20040;-73
2022/08/07 17:41:28;;;;;;;0.82;0.20;;;;;;;26.16;25.05;100486.22;10454780;28;20052;-72
2022/08/07 17:47:04;;;;;;;0.57;0.10;;;;;;;26.07;25.57;100486.47;10433230;28;20056;-69
2022/08/07 17:52:16;;;;;;;0.85;0.10;;;;;;;26.03;25.43;100492.56;10447831;28;20706;-71
2022/08/07 17:57:39;;;;;;;0.38;0.10;;;;;;;25.91;25.79;100493.25;10449038;28;20055;-71
2022/08/07 18:03:58;;;;;;;1.20;0.45;;;;;;;25.78;25.53;100493.34;10447145;28;20182;-70
2022/08/07 18:09:14;;;;;;;1.50;0.35;;;;;;;25.71;26.12;100490.63;10376213;28;20094;-70
2022/08/07 18:14:28;;;;;;;0.30;0.20;;;;;;;25.61;25.83;100490.25;10444737;28;20462;-70
2022/08/07 18:19:41;;;;;;;;;;;;;;;25.51;26.47;100493.47;10431364;28;20612;-69
2022/08/07 18:25:06;;;;;;;0.32;0.10;;;;;;;25.44;26.19;100510.91;10436078;28;20379;-69
2022/08/07 18:30:40;;;;;;;0.73;0.20;;;;;;;25.28;26.24;100499.41;10441262;28;20044;-69
2022/08/07 18:36:02;;;;;;;1.42;0.20;;;;;;;25.17;26.40;100516.38;10449781;28;20048;-70
2022/08/07 18:41:16;;;;;;;0.47;0.30;;;;;;;25.08;27.34;100523.13;10447391;28;20155;-70
2022/08/07 18:46:37;;;;;;;0.95;0.32;;;;;;;24.96;26.76;100528.38;10453357;28;20051;-71
2022/08/07 18:52:01;;;;;;;0.88;0.30;;;;;;;24.86;27.17;100531.53;10448442;28;20062;-71
2022/08/07 18:57:54;;;;;;;2.50;0.28;;;;;;;24.65;29.25;100544.31;10505460;28;20112;-76
2022/08/07 19:03:11;;;;;;;1.40;0.30;;;;;;;24.50;28.62;100535.47;10519387;28;20052;-74
2022/08/07 19:08:25;;;;;;;2.65;0.30;;;;;;;24.35;28.67;100533.81;10467672;28;20044;-73
2022/08/07 19:13:45;;;;;;;0.35;0.20;;;;;;;24.31;29.88;100545.31;10468097;28;21129;-72
2022/08/07 19:19:01;;;;;;;0.80;0.40;;;;;;;24.20;29.38;100549.47;10457390;28;21106;-71
2022/08/07 19:24:12;;;;;;;0.93;0.63;;;;;;;24.14;29.47;100558.44;10452345;28;20040;-72
2022/08/07 19:29:43;;;;;;;1.08;0.82;;;;;;;23.98;29.20;100570.53;10445465;28;20533;-73
2022/08/07 19:35:12;;;;;;;1.95;0.68;;;;;;;23.94;29.69;100580.16;10450899;28;20059;-73
2022/08/07 19:40:17;;;;;;;2.15;0.50;;;;;;;23.86;29.23;100573.00;10454626;28;20048;-72
2022/08/07 19:45:36;;;;;;;0.75;0.30;;;;;;;23.75;29.30;100588.00;10454990;28;20147;-73
2022/08/07 19:51:00;;;;;;;0.60;0.30;;;;;;;23.69;29.61;100587.94;10439794;28;20897;-73
2022/08/07 19:56:08;;;;;;;0.60;0.30;;;;;;;23.61;29.94;100600.66;10441300;28;20067;-74
2022/08/07 20:01:29;;;;;;;1.40;0.55;;;;;;;23.53;30.19;100602.72;10459234;28;20108;-73
2022/08/07 20:06:53;;;;;;;2.58;0.30;;;;;;;23.43;29.56;100605.78;10459632;28;20045;-71
2022/08/07 20:11:56;;;;;;;0.45;0.20;;;;;;;23.35;30.13;100593.22;10465978;28;20049;-73
2022/08/07 20:17:20;;;;;;;0.75;0.20;;;;;;;23.31;30.15;100602.78;10451905;28;20067;-73
2022/08/07 20:22:27;;;;;;;3.15;0.40;;;;;;;23.21;30.48;100611.28;10461163;28;20059;-73
2022/08/07 20:27:37;;;;;;;1.00;0.40;;;;;;;23.17;30.08;100606.47;10464483;28;20052;-72
2022/08/07 20:32:49;;;;;;;1.17;0.40;;;;;;;23.14;29.88;100623.97;10461237;28;20056;-73
2022/08/07 20:37:53;;;;;;;0.68;0.35;;;;;;;23.09;30.59;100616.44;10466336;28;20048;-72
2022/08/07 20:43:03;;;;;;;0.82;0.30;;;;;;;23.01;30.92;100612.97;10461627;28;20734;-73
2022/08/07 20:48:25;;;;;;;0.65;0.10;;;;;;;23.00;30.56;100622.16;10463427;28;20155;-72
2022/08/07 20:53:32;;;;;;;0.82;0.40;;;;;;;22.95;31.15;100620.88;10462400;28;20048;-73
2022/08/07 20:58:56;;;;;;;;;;;;;;;22.81;30.66;100621.78;10445960;28;20064;-73
2022/08/07 21:04:00;;;;;;;1.15;0.30;;;;;;;22.74;31.25;100616.31;10456786;28;20387;-74
2022/08/07 21:09:30;;;;;;;1.13;0.30;;;;;;;22.66;31.06;100626.47;10445611;28;20610;-73
2022/08/07 21:14:54;;;;;;;0.47;0.10;;;;;;;22.66;31.80;100618.31;10458427;28;20055;-73
2022/08/07 21:19:57;;;;;;;0.85;0.20;;;;;;;22.58;31.68;100612.00;10456262;28;20113;-72
2022/08/07 21:25:38;;;;;;;0.50;0.20;;;;;;;22.52;31.67;100614.63;10460547;28;20079;-73
2022/08/07 21:31:21;;;;;;;1.38;0.20;;;;;;;22.50;31.84;100609.38;10404991;28;20040;-70
2022/08/07 21:37:09;;;;;;;0.77;0.40;;;;;;;22.44;31.28;100610.16;10452616;28;20048;-72
2022/08/07 21:42:20;;;;;;;0.50;0.20;;;;;;;22.46;31.63;100615.41;10452211;28;20422;-73
2022/08/07 21:47:55;;;;;;;1.02;0.20;;;;;;;22.33;31.90;100607.97;10461456;28;20554;-74
2022/08/07 21:53:15;;;;;;;1.80;0.30;;;;;;;22.24;31.89;100612.66;10471817;28;20062;-73
2022/08/07 21:58:44;;;;;;;1.27;0.30;;;;;;;22.18;32.59;100624.25;10473505;28;20539;-73
2022/08/07 22:03:59;;;;;;;1.38;0.60;;;;;;;22.11;32.48;100624.16;10466570;28;20046;-72
2022/08/07 22:09:11;;;;;;;1.08;0.25;;;;;;;21.99;32.35;100633.81;10452390;28;20051;-74
2022/08/07 22:14:13;;;;;;;2.38;0.28;;;;;;;21.96;32.05;100626.06;10472196;28;20048;-73
2022/08/07 22:19:33;;;;;;;1.15;0.22;;;;;;;21.87;32.38;100628.91;10473612;28;20059;-73
2022/08/07 22:24:48;;;;;;;0.65;0.17;;;;;;;21.82;32.42;100625.91;10471542;28;20077;-73
2022/08/07 22:29:56;;;;;;;1.42;0.13;;;;;;;21.69;32.44;100632.00;10454781;28;20048;-73
2022/08/07 22:35:00;;;;;;;0.45;0.20;;;;;;;21.73;32.27;100626.19;10464328;28;20043;-73
2022/08/07 22:40:41;;;;;;;1.13;0.20;;;;;;;21.69;32.76;100632.00;10457890;28;20051;-72
2022/08/07 22:45:58;;;;;;;1.60;0.30;;;;;;;21.65;32.76;100635.28;10448948;28;20057;-74
2022/08/07 22:51:52;;;;;;;0.90;0.10;;;;;;;21.47;33.50;100647.28;10460293;28;20135;-73
2022/08/07 22:57:28;;;;;;;1.13;0.30;;;;;;;21.36;34.03;100645.00;10462282;28;20049;-73
2022/08/07 23:02:40;;;;;;;1.42;0.22;;;;;;;21.46;34.13;100648.28;10473000;28;20189;-73
2022/08/07 23:08:08;;;;;;;1.02;0.20;;;;;;;21.45;34.44;100646.63;10470612;28;20140;-72
2022/08/07 23:14:07;;;;;;;0.85;0.20;;;;;;;21.29;34.91;100641.38;10468967;28;20048;-73
2022/08/07 23:25:34;;;;;;;1.88;0.28;;;;;;;21.09;35.39;100644.59;10470386;28;20454;-73
2022/08/07 23:30:57;;;;;;;1.50;0.40;;;;;;;21.04;34.84;100648.88;10467296;28;20060;-73
2022/08/07 23:36:41;;;;;;;0.93;0.20;;;;;;;20.96;34.87;100641.69;10464699;28;20517;-71
2022/08/07 23:41:48;;;;;;;1.48;0.50;;;;;;;20.87;35.50;100645.44;10465664;28;20036;-73
2022/08/07 23:47:25;;;;;;;0.73;0.22;;;;;;;20.93;36.04;100636.63;10456245;28;20047;-72
2022/08/07 23:52:44;;;;;;;1.35;0.30;;;;;;;20.88;35.90;100637.16;10472867;28;20056;-73
2022/08/07 23:58:11;;;;;;;1.05;0.30;;;;;;;20.85;36.35;100640.22;10478328;28;20048;-72
